Flight Track Log - Related Links

Times and Time Zones

All times are in EDT time to prevent confusion due to time zone crossing. See the N70AG flight status page for this flight to view local times or setup timezone preferences in your user account.

Time Position Orientation Groundspeed Altitude Reporting Facility
EDT Latitude Longitude Course Direction KTS MPH feet Rate Location/Type
Wed 02:26:43 PM 32.7472 -117.2364 309° West 204 235 2,500  Level Los Angeles Center
Wed 02:27:45 PM 32.7933 -117.3072 308° West 234 269 6,400 3,484 Climbing Los Angeles Center
Wed 02:28:47 PM 32.8439 -117.3778 310° West 271 312 9,700 2,544 Climbing Los Angeles Center
Wed 02:29:50 PM 32.9044 -117.4589 312° West 324 373 11,700 2,400 Climbing Los Angeles Center
Wed 02:30:52 PM 32.9742 -117.5536 311° West 370 426 14,700 2,903 Climbing Los Angeles Center
Wed 02:31:54 PM 33.0461 -117.6514 311° West 387 445 17,700 2,758 Climbing Los Angeles Center
Wed 02:32:00 PM 33.1735 -117.8436 309° West  Level FlightAware Approximate
Wed 02:32:56 PM 33.1219 -117.7558 311° West 407 468 20,400  Level Los Angeles Center
Wed 02:33:58 PM 33.2197 -117.8881 311° West 436 502 23,500 2,661 Climbing Los Angeles Center
Wed 02:35:00 PM 33.3078 -117.9989 314° West 452 520 25,900 2,032 Climbing Los Angeles Center
Wed 02:36:02 PM 33.4147 -118.0917 324° Northwest 476 548 27,700 2,177 Climbing Los Angeles Center
Wed 02:37:04 PM 33.5375 -118.1422 341° North 469 540 30,400 2,226 Climbing Los Angeles Center
Wed 02:38:06 PM 33.6611 -118.1797 346° North 462 532 32,300 1,968 Climbing Los Angeles Center
Wed 02:39:09 PM 33.8128 -118.2242 346° North 484 557 34,500 1,776 Climbing Los Angeles Center
Wed 02:40:11 PM 33.9358 -118.2672 344° North 475 547 36,000 662 Climbing Los Angeles Center
Wed 02:41:25 PM 34.0675 -118.3103 345° North 491 565 36,000  Level Los Angeles Center
Wed 02:42:27 PM 34.2361 -118.3647 345° North 522 601 36,000  Level Los Angeles Center
Wed 02:43:29 PM 34.4053 -118.4197 345° North 526 605 36,000  Level Los Angeles Center
Wed 02:44:31 PM 34.5458 -118.4647 345° North 524 603 36,000  Level Los Angeles Center
Wed 02:45:34 PM 34.6878 -118.5117 345° North 529 609 36,000  Level Los Angeles Center
Wed 02:46:36 PM 34.8286 -118.5581 345° North 527 606 36,000  Level Los Angeles Center
Wed 02:47:38 PM 34.9742 -118.6047 345° North 530 610 36,000  Level Los Angeles Center
Wed 02:48:40 PM 35.1175 -118.6392 349° North 528 608 36,000  Level Los Angeles Center
Wed 02:49:42 PM 35.2922 -118.6772 350° North 534 615 36,000  Level Los Angeles Center
Wed 02:50:44 PM 35.4364 -118.7078 350° North 530 610 36,000  Level Los Angeles Center
Wed 02:51:46 PM 35.5731 -118.7419 349° North 516 594 36,000  Level Los Angeles Center
Wed 02:52:48 PM 35.7186 -118.7717 351° North 527 606 36,000  Level Los Angeles Center
Wed 02:53:50 PM 35.8622 -118.8031 350° North 528 608 36,000  Level Los Angeles Center
Wed 02:54:52 PM 36.0347 -118.8419 350° North 526 605 36,000  Level Los Angeles Center
Wed 02:56:19 PM 36.2336 -118.8858 350° North 526 605 36,000  Level Oakland Center
Wed 02:57:20 PM 36.3764 -118.9183 350° North 525 604 36,000  Level Oakland Center
Wed 02:58:22 PM 36.5206 -118.9506 350° North 526 605 36,000  Level Oakland Center
Wed 02:59:23 PM 36.6625 -118.9808 350° North 524 603 36,000 -49 Level Oakland Center
Wed 03:00:25 PM 36.8067 -119.0131 350° North 526 605 35,900 -823 Descending Oakland Center
Wed 03:01:27 PM 36.9786 -119.0519 350° North 527 606 34,300 -1,366 Descending Oakland Center
Wed 03:02:28 PM 37.1231 -119.0858 349° North 531 611 33,100 -829 Descending Oakland Center
Wed 03:03:30 PM 37.2664 -119.1192 350° North 527 606 32,600 -629 Descending Oakland Center
Wed 03:04:32 PM 37.4006 -119.1489 350° North 496 571 31,800 -1,268 Descending Oakland Center
Wed 03:05:33 PM 37.5361 -119.1800 350° North 495 570 30,000 -1,561 Descending Oakland Center
Wed 03:06:35 PM 37.6961 -119.2194 349° North 527 606 28,600 -1,659 Descending Oakland Center
Wed 03:07:36 PM 37.8386 -119.2525 350° North 524 603 26,600 -2,000 Descending Oakland Center
Wed 03:08:38 PM 37.9739 -119.2825 350° North 501 577 24,500 -1,268 Descending Oakland Center
Wed 03:09:39 PM 38.1047 -119.3139 349° North 484 557 24,000 -244 Descending Oakland Center
Wed 03:10:41 PM 38.2419 -119.3464 349° North 482 555 24,000  Level Oakland Center
Wed 03:11:43 PM 38.3753 -119.3786 349° North 486 559 24,000 -390 Level Oakland Center
Wed 03:12:44 PM 38.5069 -119.4086 350° North 481 554 23,200 -878 Descending Oakland Center
Wed 03:13:46 PM 38.6361 -119.4400 349° North 472 543 22,200 -968 Descending Oakland Center
Wed 03:14:48 PM 38.7636 -119.4694 350° North 466 536 21,200 -1,122 Descending Oakland Center
Wed 03:15:49 PM 38.9133 -119.5061 349° North 455 524 19,900 -1,415 Descending Oakland Center
Wed 03:16:51 PM 39.0369 -119.5358 349° North 451 519 18,300 -1,452 Descending Oakland Center
Wed 03:17:53 PM 39.1564 -119.5650 349° North 439 505 16,900 -1,561 Descending Oakland Center
Wed 03:18:54 PM 39.2731 -119.5928 350° North 428 493 15,100 -1,756 Descending Oakland Center
Wed 03:19:56 PM 39.3769 -119.6189 349° North 392 451 13,300 -1,105 Descending Oakland Center
Wed 03:20:48 PM 39.4667 -119.6333 353° North 323 372 13,000 -356 Descending Northern Cal TRACON
Wed 03:21:54 PM 39.5500 -119.6500 351° North 272 313 12,600 -900 Descending Northern Cal TRACON
Wed 03:22:48 PM 39.6000 -119.6500 360° North 254 292 11,200 -1,368 Descending Northern Cal TRACON
Wed 03:23:48 PM 39.6500 -119.7000 322° Northwest 234 269 10,000 -1,550 Descending Northern Cal TRACON
Wed 03:24:48 PM 39.6333 -119.7667 252° West 188 216 8,100 -1,800 Descending Northern Cal TRACON
Wed 03:25:48 PM 39.5833 -119.7667 180° South 158 182 6,400 -1,500 Descending Northern Cal TRACON
Wed 03:26:48 PM 39.5333 -119.7667 180° South 146 168 5,100 -1,300 Descending Northern Cal TRACON
Wed 03:28:00 PM 39.4991 -119.7681 186° South  Level Estimated
Wed 03:35:00 PM 39.4991 -119.7681 186° South  Level Estimated

Login

Don't have an account? Register now (free) for customized features, flight alerts, and more!